sensor_id;sensor_type;location;lat;lon;timestamp;temperature;humidity
52765;DHT22;38650;44.536;18.664;2024-01-06T00:01:11;13.80;72.00
52765;DHT22;38650;44.536;18.664;2024-01-06T00:03:37;13.80;73.90
52765;DHT22;38650;44.536;18.664;2024-01-06T00:06:03;13.80;73.00
52765;DHT22;38650;44.536;18.664;2024-01-06T00:08:29;13.80;73.90
52765;DHT22;38650;44.536;18.664;2024-01-06T00:10:55;13.70;73.50
52765;DHT22;38650;44.536;18.664;2024-01-06T00:13:20;13.70;73.70
52765;DHT22;38650;44.536;18.664;2024-01-06T00:15:46;13.70;73.30
52765;DHT22;38650;44.536;18.664;2024-01-06T00:18:12;13.70;76.40
52765;DHT22;38650;44.536;18.664;2024-01-06T00:20:38;13.70;75.70
52765;DHT22;38650;44.536;18.664;2024-01-06T00:23:04;13.60;76.80
52765;DHT22;38650;44.536;18.664;2024-01-06T00:25:29;13.60;77.20
52765;DHT22;38650;44.536;18.664;2024-01-06T00:27:55;13.50;79.30
52765;DHT22;38650;44.536;18.664;2024-01-06T00:30:21;13.40;80.60
52765;DHT22;38650;44.536;18.664;2024-01-06T00:32:46;13.30;82.50
52765;DHT22;38650;44.536;18.664;2024-01-06T00:35:12;13.20;83.20
52765;DHT22;38650;44.536;18.664;2024-01-06T00:37:38;13.10;85.50
52765;DHT22;38650;44.536;18.664;2024-01-06T00:40:04;13.10;86.40
52765;DHT22;38650;44.536;18.664;2024-01-06T00:42:30;13.00;87.70
52765;DHT22;38650;44.536;18.664;2024-01-06T00:44:56;12.90;88.90
52765;DHT22;38650;44.536;18.664;2024-01-06T00:47:21;12.90;89.50
52765;DHT22;38650;44.536;18.664;2024-01-06T00:49:49;12.90;90.00
52765;DHT22;38650;44.536;18.664;2024-01-06T00:52:15;12.90;90.40
52765;DHT22;38650;44.536;18.664;2024-01-06T00:54:41;12.90;91.20
52765;DHT22;38650;44.536;18.664;2024-01-06T00:57:07;12.90;90.80
52765;DHT22;38650;44.536;18.664;2024-01-06T00:59:33;12.90;91.10
52765;DHT22;38650;44.536;18.664;2024-01-06T01:01:58;12.90;90.90
52765;DHT22;38650;44.536;18.664;2024-01-06T01:04:24;13.00;90.50
52765;DHT22;38650;44.536;18.664;2024-01-06T01:06:50;12.90;90.40
52765;DHT22;38650;44.536;18.664;2024-01-06T01:09:15;12.90;90.70
52765;DHT22;38650;44.536;18.664;2024-01-06T01:11:41;12.80;90.80
52765;DHT22;38650;44.536;18.664;2024-01-06T01:14:08;12.70;90.80
52765;DHT22;38650;44.536;18.664;2024-01-06T01:16:33;12.70;91.20
52765;DHT22;38650;44.536;18.664;2024-01-06T01:18:59;12.70;91.30
52765;DHT22;38650;44.536;18.664;2024-01-06T01:21:27;12.60;91.20
52765;DHT22;38650;44.536;18.664;2024-01-06T01:23:53;12.50;91.60
52765;DHT22;38650;44.536;18.664;2024-01-06T01:26:19;12.40;91.60
52765;DHT22;38650;44.536;18.664;2024-01-06T01:28:44;12.40;92.20
52765;DHT22;38650;44.536;18.664;2024-01-06T01:31:10;12.20;92.90
52765;DHT22;38650;44.536;18.664;2024-01-06T01:33:37;12.20;93.10
52765;DHT22;38650;44.536;18.664;2024-01-06T01:36:03;12.10;93.30
52765;DHT22;38650;44.536;18.664;2024-01-06T01:38:28;12.10;93.50
52765;DHT22;38650;44.536;18.664;2024-01-06T01:40:54;12.00;94.80
52765;DHT22;38650;44.536;18.664;2024-01-06T01:43:20;11.90;95.30
52765;DHT22;38650;44.536;18.664;2024-01-06T01:45:55;11.90;95.30
52765;DHT22;38650;44.536;18.664;2024-01-06T01:48:22;11.90;95.30
52765;DHT22;38650;44.536;18.664;2024-01-06T01:50:48;11.90;95.10
52765;DHT22;38650;44.536;18.664;2024-01-06T01:53:14;11.80;95.00
52765;DHT22;38650;44.536;18.664;2024-01-06T01:55:43;11.90;95.10
52765;DHT22;38650;44.536;18.664;2024-01-06T01:58:12;11.80;95.10
52765;DHT22;38650;44.536;18.664;2024-01-06T02:00:38;11.80;95.30
52765;DHT22;38650;44.536;18.664;2024-01-06T02:03:05;11.80;95.50
52765;DHT22;38650;44.536;18.664;2024-01-06T02:05:31;11.70;95.60
52765;DHT22;38650;44.536;18.664;2024-01-06T02:07:57;11.60;96.30
52765;DHT22;38650;44.536;18.664;2024-01-06T02:10:22;11.40;97.00
52765;DHT22;38650;44.536;18.664;2024-01-06T02:12:51;11.40;97.20
52765;DHT22;38650;44.536;18.664;2024-01-06T02:15:17;11.30;97.70
52765;DHT22;38650;44.536;18.664;2024-01-06T02:17:43;11.20;98.50
52765;DHT22;38650;44.536;18.664;2024-01-06T02:20:11;11.10;98.90
52765;DHT22;38650;44.536;18.664;2024-01-06T02:22:37;11.00;99.50
52765;DHT22;38650;44.536;18.664;2024-01-06T02:25:05;11.10;99.70
52765;DHT22;38650;44.536;18.664;2024-01-06T02:27:38;11.10;99.50
52765;DHT22;38650;44.536;18.664;2024-01-06T02:30:05;11.00;99.80
52765;DHT22;38650;44.536;18.664;2024-01-06T02:32:31;11.00;99.70
52765;DHT22;38650;44.536;18.664;2024-01-06T02:34:56;11.10;99.20
52765;DHT22;38650;44.536;18.664;2024-01-06T02:37:22;11.10;98.60
52765;DHT22;38650;44.536;18.664;2024-01-06T02:39:48;11.10;98.70
52765;DHT22;38650;44.536;18.664;2024-01-06T02:42:13;11.10;98.80
52765;DHT22;38650;44.536;18.664;2024-01-06T02:44:39;11.10;98.50
52765;DHT22;38650;44.536;18.664;2024-01-06T02:47:05;11.10;98.40
52765;DHT22;38650;44.536;18.664;2024-01-06T02:49:30;11.00;98.60
52765;DHT22;38650;44.536;18.664;2024-01-06T02:51:56;11.00;98.70
52765;DHT22;38650;44.536;18.664;2024-01-06T02:54:22;11.00;98.70
52765;DHT22;38650;44.536;18.664;2024-01-06T02:56:47;11.00;98.60
52765;DHT22;38650;44.536;18.664;2024-01-06T02:59:13;11.10;98.90
52765;DHT22;38650;44.536;18.664;2024-01-06T03:01:39;11.00;98.90
52765;DHT22;38650;44.536;18.664;2024-01-06T03:04:04;11.10;99.00
52765;DHT22;38650;44.536;18.664;2024-01-06T03:06:30;11.10;99.10
52765;DHT22;38650;44.536;18.664;2024-01-06T03:08:56;11.10;99.50
52765;DHT22;38650;44.536;18.664;2024-01-06T03:11:22;11.10;99.80
52765;DHT22;38650;44.536;18.664;2024-01-06T03:13:48;11.10;99.90
52765;DHT22;38650;44.536;18.664;2024-01-06T03:16:13;11.10;99.90
52765;DHT22;38650;44.536;18.664;2024-01-06T03:18:39;11.10;99.90
52765;DHT22;38650;44.536;18.664;2024-01-06T03:21:05;11.20;99.90
52765;DHT22;38650;44.536;18.664;2024-01-06T03:23:30;11.30;99.90
52765;DHT22;38650;44.536;18.664;2024-01-06T03:25:56;11.30;99.90
52765;DHT22;38650;44.536;18.664;2024-01-06T03:28:22;11.30;99.90
52765;DHT22;38650;44.536;18.664;2024-01-06T03:30:48;11.30;99.90
52765;DHT22;38650;44.536;18.664;2024-01-06T03:33:14;11.30;99.90
52765;DHT22;38650;44.536;18.664;2024-01-06T03:35:39;11.40;99.90
52765;DHT22;38650;44.536;18.664;2024-01-06T03:38:05;11.30;99.80
52765;DHT22;38650;44.536;18.664;2024-01-06T03:40:31;11.30;99.90
52765;DHT22;38650;44.536;18.664;2024-01-06T03:42:56;11.20;99.90
52765;DHT22;38650;44.536;18.664;2024-01-06T03:45:22;11.30;99.90
52765;DHT22;38650;44.536;18.664;2024-01-06T03:47:47;11.30;99.90
52765;DHT22;38650;44.536;18.664;2024-01-06T03:50:13;11.30;99.90
52765;DHT22;38650;44.536;18.664;2024-01-06T03:52:39;11.40;99.80
52765;DHT22;38650;44.536;18.664;2024-01-06T03:55:05;11.30;99.90
52765;DHT22;38650;44.536;18.664;2024-01-06T03:57:31;11.30;99.80
52765;DHT22;38650;44.536;18.664;2024-01-06T03:59:57;11.30;99.70
52765;DHT22;38650;44.536;18.664;2024-01-06T04:02:23;11.20;99.90
52765;DHT22;38650;44.536;18.664;2024-01-06T04:04:49;11.20;99.90
52765;DHT22;38650;44.536;18.664;2024-01-06T04:07:15;11.20;99.90
52765;DHT22;38650;44.536;18.664;2024-01-06T04:09:44;11.20;99.90
52765;DHT22;38650;44.536;18.664;2024-01-06T04:12:09;11.00;99.90
52765;DHT22;38650;44.536;18.664;2024-01-06T04:14:35;11.00;99.90
52765;DHT22;38650;44.536;18.664;2024-01-06T04:17:01;11.00;99.90
52765;DHT22;38650;44.536;18.664;2024-01-06T04:19:26;11.10;99.90
52765;DHT22;38650;44.536;18.664;2024-01-06T04:21:52;11.10;99.90
52765;DHT22;38650;44.536;18.664;2024-01-06T04:24:18;11.10;99.90
52765;DHT22;38650;44.536;18.664;2024-01-06T04:26:44;11.10;99.90
52765;DHT22;38650;44.536;18.664;2024-01-06T04:29:10;11.10;99.90
52765;DHT22;38650;44.536;18.664;2024-01-06T04:31:37;11.10;99.90
52765;DHT22;38650;44.536;18.664;2024-01-06T04:34:03;11.00;99.90
52765;DHT22;38650;44.536;18.664;2024-01-06T04:36:29;11.00;99.90
52765;DHT22;38650;44.536;18.664;2024-01-06T04:38:55;10.90;99.90
52765;DHT22;38650;44.536;18.664;2024-01-06T04:41:21;10.90;99.90
52765;DHT22;38650;44.536;18.664;2024-01-06T04:43:46;11.00;99.90
52765;DHT22;38650;44.536;18.664;2024-01-06T04:46:12;10.90;99.90
52765;DHT22;38650;44.536;18.664;2024-01-06T04:48:40;10.80;99.90
52765;DHT22;38650;44.536;18.664;2024-01-06T04:51:06;10.80;99.90
52765;DHT22;38650;44.536;18.664;2024-01-06T04:53:36;10.90;99.90
52765;DHT22;38650;44.536;18.664;2024-01-06T04:56:01;10.90;99.90
52765;DHT22;38650;44.536;18.664;2024-01-06T04:58:27;10.90;99.90
52765;DHT22;38650;44.536;18.664;2024-01-06T05:00:53;11.00;99.90
52765;DHT22;38650;44.536;18.664;2024-01-06T05:03:19;10.90;99.90
52765;DHT22;38650;44.536;18.664;2024-01-06T05:05:45;10.80;99.90
52765;DHT22;38650;44.536;18.664;2024-01-06T05:08:10;10.80;99.90
52765;DHT22;38650;44.536;18.664;2024-01-06T05:10:36;10.70;99.90
52765;DHT22;38650;44.536;18.664;2024-01-06T05:13:02;10.80;99.90
52765;DHT22;38650;44.536;18.664;2024-01-06T05:15:27;10.90;99.90
52765;DHT22;38650;44.536;18.664;2024-01-06T05:17:53;10.90;99.90
52765;DHT22;38650;44.536;18.664;2024-01-06T05:20:19;10.90;99.90
52765;DHT22;38650;44.536;18.664;2024-01-06T05:22:45;10.90;99.90
52765;DHT22;38650;44.536;18.664;2024-01-06T05:25:10;10.80;99.90
52765;DHT22;38650;44.536;18.664;2024-01-06T05:27:36;10.90;99.90
52765;DHT22;38650;44.536;18.664;2024-01-06T05:30:02;10.90;99.90
52765;DHT22;38650;44.536;18.664;2024-01-06T05:32:28;10.90;99.90
52765;DHT22;38650;44.536;18.664;2024-01-06T05:34:53;11.00;99.90
52765;DHT22;38650;44.536;18.664;2024-01-06T05:37:19;11.00;99.90
52765;DHT22;38650;44.536;18.664;2024-01-06T05:39:45;11.00;99.90
52765;DHT22;38650;44.536;18.664;2024-01-06T05:42:10;11.00;99.90
52765;DHT22;38650;44.536;18.664;2024-01-06T05:44:37;11.00;99.90
52765;DHT22;38650;44.536;18.664;2024-01-06T05:47:03;11.00;99.90
52765;DHT22;38650;44.536;18.664;2024-01-06T05:49:29;11.00;99.90
52765;DHT22;38650;44.536;18.664;2024-01-06T05:51:55;11.00;99.90
52765;DHT22;38650;44.536;18.664;2024-01-06T05:54:21;11.00;99.90
52765;DHT22;38650;44.536;18.664;2024-01-06T05:56:47;11.00;99.90
52765;DHT22;38650;44.536;18.664;2024-01-06T05:59:12;11.10;99.90
52765;DHT22;38650;44.536;18.664;2024-01-06T06:01:38;11.00;99.90
52765;DHT22;38650;44.536;18.664;2024-01-06T06:04:04;11.00;99.90
52765;DHT22;38650;44.536;18.664;2024-01-06T06:06:30;11.00;99.90
52765;DHT22;38650;44.536;18.664;2024-01-06T06:08:55;11.10;99.90
52765;DHT22;38650;44.536;18.664;2024-01-06T06:11:21;11.10;99.90
52765;DHT22;38650;44.536;18.664;2024-01-06T06:13:47;11.10;99.90
52765;DHT22;38650;44.536;18.664;2024-01-06T06:16:13;11.20;99.90
52765;DHT22;38650;44.536;18.664;2024-01-06T06:18:39;11.20;99.90
52765;DHT22;38650;44.536;18.664;2024-01-06T06:21:06;11.20;99.90
52765;DHT22;38650;44.536;18.664;2024-01-06T06:23:32;11.20;99.90
52765;DHT22;38650;44.536;18.664;2024-01-06T06:25:58;11.20;99.90
52765;DHT22;38650;44.536;18.664;2024-01-06T06:28:25;11.10;99.90
52765;DHT22;38650;44.536;18.664;2024-01-06T06:30:51;11.20;99.90
52765;DHT22;38650;44.536;18.664;2024-01-06T06:33:16;11.10;99.90
52765;DHT22;38650;44.536;18.664;2024-01-06T06:35:42;11.20;99.90
52765;DHT22;38650;44.536;18.664;2024-01-06T06:38:08;11.30;99.90
52765;DHT22;38650;44.536;18.664;2024-01-06T06:40:34;11.40;99.90
52765;DHT22;38650;44.536;18.664;2024-01-06T06:42:59;11.40;99.90
52765;DHT22;38650;44.536;18.664;2024-01-06T06:45:25;11.50;99.90
52765;DHT22;38650;44.536;18.664;2024-01-06T06:47:51;11.50;99.90
52765;DHT22;38650;44.536;18.664;2024-01-06T06:50:17;11.40;99.90
52765;DHT22;38650;44.536;18.664;2024-01-06T06:52:44;11.50;99.90
52765;DHT22;38650;44.536;18.664;2024-01-06T06:55:09;11.50;99.90
52765;DHT22;38650;44.536;18.664;2024-01-06T06:57:36;11.60;99.90
52765;DHT22;38650;44.536;18.664;2024-01-06T07:00:01;11.50;99.90
52765;DHT22;38650;44.536;18.664;2024-01-06T07:02:28;11.50;99.90
52765;DHT22;38650;44.536;18.664;2024-01-06T07:04:53;11.60;99.90
52765;DHT22;38650;44.536;18.664;2024-01-06T07:07:19;11.60;99.90
52765;DHT22;38650;44.536;18.664;2024-01-06T07:09:45;11.70;99.90
52765;DHT22;38650;44.536;18.664;2024-01-06T07:12:10;11.70;99.90
52765;DHT22;38650;44.536;18.664;2024-01-06T07:14:36;11.80;99.90
52765;DHT22;38650;44.536;18.664;2024-01-06T07:17:03;11.90;99.90
52765;DHT22;38650;44.536;18.664;2024-01-06T07:19:31;12.00;99.90
52765;DHT22;38650;44.536;18.664;2024-01-06T07:21:57;12.00;99.30
52765;DHT22;38650;44.536;18.664;2024-01-06T07:24:23;12.00;99.40
52765;DHT22;38650;44.536;18.664;2024-01-06T07:26:48;12.10;99.40
52765;DHT22;38650;44.536;18.664;2024-01-06T07:29:14;12.20;98.90
52765;DHT22;38650;44.536;18.664;2024-01-06T07:31:40;12.20;99.10
52765;DHT22;38650;44.536;18.664;2024-01-06T07:34:05;12.20;98.80
52765;DHT22;38650;44.536;18.664;2024-01-06T07:36:31;12.30;98.30
52765;DHT22;38650;44.536;18.664;2024-01-06T07:38:57;12.40;97.00
52765;DHT22;38650;44.536;18.664;2024-01-06T07:41:23;12.50;95.80
52765;DHT22;38650;44.536;18.664;2024-01-06T07:43:49;12.80;93.20
52765;DHT22;38650;44.536;18.664;2024-01-06T07:46:15;13.10;92.00
52765;DHT22;38650;44.536;18.664;2024-01-06T07:48:40;13.30;91.40
52765;DHT22;38650;44.536;18.664;2024-01-06T07:51:06;13.40;90.40
52765;DHT22;38650;44.536;18.664;2024-01-06T07:53:32;13.60;84.90
52765;DHT22;38650;44.536;18.664;2024-01-06T07:55:58;13.80;80.00
52765;DHT22;38650;44.536;18.664;2024-01-06T07:58:24;14.10;76.10
52765;DHT22;38650;44.536;18.664;2024-01-06T08:00:50;14.30;77.90
52765;DHT22;38650;44.536;18.664;2024-01-06T08:03:15;14.30;79.20
52765;DHT22;38650;44.536;18.664;2024-01-06T08:05:42;14.30;75.80
52765;DHT22;38650;44.536;18.664;2024-01-06T08:08:07;14.40;79.60
52765;DHT22;38650;44.536;18.664;2024-01-06T08:10:33;14.30;78.80
52765;DHT22;38650;44.536;18.664;2024-01-06T08:12:59;14.40;73.20
52765;DHT22;38650;44.536;18.664;2024-01-06T08:15:24;14.60;67.90
52765;DHT22;38650;44.536;18.664;2024-01-06T08:17:50;14.80;66.90
52765;DHT22;38650;44.536;18.664;2024-01-06T08:20:16;14.90;69.00
52765;DHT22;38650;44.536;18.664;2024-01-06T08:22:41;14.90;66.90
52765;DHT22;38650;44.536;18.664;2024-01-06T08:25:07;14.90;68.30
52765;DHT22;38650;44.536;18.664;2024-01-06T08:27:33;14.90;66.70
52765;DHT22;38650;44.536;18.664;2024-01-06T08:29:59;15.00;69.70
52765;DHT22;38650;44.536;18.664;2024-01-06T08:32:25;15.00;69.30
52765;DHT22;38650;44.536;18.664;2024-01-06T08:34:51;15.00;67.00
52765;DHT22;38650;44.536;18.664;2024-01-06T08:37:16;15.00;67.30
52765;DHT22;38650;44.536;18.664;2024-01-06T08:39:42;15.20;64.10
52765;DHT22;38650;44.536;18.664;2024-01-06T08:42:08;15.30;63.80
52765;DHT22;38650;44.536;18.664;2024-01-06T08:44:33;15.40;64.20
52765;DHT22;38650;44.536;18.664;2024-01-06T08:46:59;15.40;61.80
52765;DHT22;38650;44.536;18.664;2024-01-06T08:49:25;15.50;61.80
52765;DHT22;38650;44.536;18.664;2024-01-06T08:51:50;15.50;63.90
52765;DHT22;38650;44.536;18.664;2024-01-06T08:54:16;15.40;64.10
52765;DHT22;38650;44.536;18.664;2024-01-06T08:56:42;15.30;67.30
52765;DHT22;38650;44.536;18.664;2024-01-06T08:59:07;15.30;68.10
52765;DHT22;38650;44.536;18.664;2024-01-06T09:01:33;15.20;67.70
52765;DHT22;38650;44.536;18.664;2024-01-06T09:04:01;15.20;68.30
52765;DHT22;38650;44.536;18.664;2024-01-06T09:06:28;15.10;69.00
52765;DHT22;38650;44.536;18.664;2024-01-06T09:08:53;15.10;66.10
52765;DHT22;38650;44.536;18.664;2024-01-06T09:11:19;15.20;66.50
52765;DHT22;38650;44.536;18.664;2024-01-06T09:13:45;15.20;67.50
52765;DHT22;38650;44.536;18.664;2024-01-06T09:16:10;15.20;66.50
52765;DHT22;38650;44.536;18.664;2024-01-06T09:18:36;15.30;64.80
52765;DHT22;38650;44.536;18.664;2024-01-06T09:21:02;15.30;64.10
52765;DHT22;38650;44.536;18.664;2024-01-06T09:23:28;15.40;69.40
52765;DHT22;38650;44.536;18.664;2024-01-06T09:25:54;15.30;68.30
52765;DHT22;38650;44.536;18.664;2024-01-06T09:28:20;15.20;68.20
52765;DHT22;38650;44.536;18.664;2024-01-06T09:30:49;15.20;74.00
52765;DHT22;38650;44.536;18.664;2024-01-06T09:33:15;15.10;72.90
52765;DHT22;38650;44.536;18.664;2024-01-06T09:35:42;15.10;64.50
52765;DHT22;38650;44.536;18.664;2024-01-06T09:38:10;15.30;62.40
52765;DHT22;38650;44.536;18.664;2024-01-06T09:40:41;15.40;64.40
52765;DHT22;38650;44.536;18.664;2024-01-06T09:43:09;15.50;61.60
52765;DHT22;38650;44.536;18.664;2024-01-06T09:45:35;15.60;62.50
52765;DHT22;38650;44.536;18.664;2024-01-06T09:48:08;15.60;61.00
52765;DHT22;38650;44.536;18.664;2024-01-06T09:50:36;15.60;61.20
52765;DHT22;38650;44.536;18.664;2024-01-06T09:53:03;15.60;62.60
52765;DHT22;38650;44.536;18.664;2024-01-06T09:55:31;15.60;63.40
52765;DHT22;38650;44.536;18.664;2024-01-06T09:57:57;15.60;63.10
52765;DHT22;38650;44.536;18.664;2024-01-06T10:00:23;15.60;70.80
52765;DHT22;38650;44.536;18.664;2024-01-06T10:02:49;15.50;73.80
52765;DHT22;38650;44.536;18.664;2024-01-06T10:05:18;15.30;82.10
52765;DHT22;38650;44.536;18.664;2024-01-06T10:07:45;15.10;84.70
52765;DHT22;38650;44.536;18.664;2024-01-06T10:10:11;14.90;90.30
52765;DHT22;38650;44.536;18.664;2024-01-06T10:12:38;14.80;86.50
52765;DHT22;38650;44.536;18.664;2024-01-06T10:15:05;14.90;85.00
52765;DHT22;38650;44.536;18.664;2024-01-06T10:17:32;14.90;78.60
52765;DHT22;38650;44.536;18.664;2024-01-06T10:19:59;15.10;78.10
52765;DHT22;38650;44.536;18.664;2024-01-06T10:22:24;15.30;66.70
52765;DHT22;38650;44.536;18.664;2024-01-06T10:24:50;15.50;64.70
52765;DHT22;38650;44.536;18.664;2024-01-06T10:27:16;15.70;65.60
52765;DHT22;38650;44.536;18.664;2024-01-06T10:29:42;15.80;62.20
52765;DHT22;38650;44.536;18.664;2024-01-06T10:32:08;15.90;62.50
52765;DHT22;38650;44.536;18.664;2024-01-06T10:34:33;16.00;59.80
52765;DHT22;38650;44.536;18.664;2024-01-06T10:37:02;16.20;59.20
52765;DHT22;38650;44.536;18.664;2024-01-06T10:39:28;16.30;59.60
52765;DHT22;38650;44.536;18.664;2024-01-06T10:41:55;16.40;59.50
52765;DHT22;38650;44.536;18.664;2024-01-06T10:44:21;16.50;59.10
52765;DHT22;38650;44.536;18.664;2024-01-06T10:46:50;16.60;59.50
52765;DHT22;38650;44.536;18.664;2024-01-06T10:49:17;16.70;58.90
52765;DHT22;38650;44.536;18.664;2024-01-06T10:51:48;16.80;57.50
52765;DHT22;38650;44.536;18.664;2024-01-06T10:54:14;16.90;56.70
52765;DHT22;38650;44.536;18.664;2024-01-06T10:56:42;17.00;58.10
52765;DHT22;38650;44.536;18.664;2024-01-06T10:59:08;17.20;58.40
52765;DHT22;38650;44.536;18.664;2024-01-06T11:01:37;17.40;58.50
52765;DHT22;38650;44.536;18.664;2024-01-06T11:04:04;17.50;57.80
52765;DHT22;38650;44.536;18.664;2024-01-06T11:06:32;17.60;54.90
52765;DHT22;38650;44.536;18.664;2024-01-06T11:09:09;17.70;54.60
52765;DHT22;38650;44.536;18.664;2024-01-06T11:11:36;17.70;53.60
52765;DHT22;38650;44.536;18.664;2024-01-06T11:16:47;17.60;52.20
52765;DHT22;38650;44.536;18.664;2024-01-06T11:22:25;17.40;52.10
52765;DHT22;38650;44.536;18.664;2024-01-06T11:24:53;17.40;53.20
52765;DHT22;38650;44.536;18.664;2024-01-06T11:27:24;17.40;52.30
52765;DHT22;38650;44.536;18.664;2024-01-06T11:29:52;17.30;51.80
52765;DHT22;38650;44.536;18.664;2024-01-06T11:32:30;17.30;52.80
52765;DHT22;38650;44.536;18.664;2024-01-06T11:35:06;17.20;52.40
52765;DHT22;38650;44.536;18.664;2024-01-06T11:43:07;17.10;52.50
52765;DHT22;38650;44.536;18.664;2024-01-06T11:45:35;17.20;53.40
52765;DHT22;38650;44.536;18.664;2024-01-06T11:48:05;17.10;53.20
52765;DHT22;38650;44.536;18.664;2024-01-06T11:50:32;17.10;53.10
52765;DHT22;38650;44.536;18.664;2024-01-06T11:52:59;17.00;52.80
52765;DHT22;38650;44.536;18.664;2024-01-06T11:55:26;17.00;52.50
52765;DHT22;38650;44.536;18.664;2024-01-06T11:57:55;17.10;52.40
52765;DHT22;38650;44.536;18.664;2024-01-06T12:00:22;17.10;52.90
52765;DHT22;38650;44.536;18.664;2024-01-06T12:02:47;17.00;53.10
52765;DHT22;38650;44.536;18.664;2024-01-06T12:05:17;17.00;53.60
52765;DHT22;38650;44.536;18.664;2024-01-06T12:07:52;16.90;53.00
52765;DHT22;38650;44.536;18.664;2024-01-06T12:10:20;17.00;53.50
52765;DHT22;38650;44.536;18.664;2024-01-06T12:13:00;16.90;54.40
52765;DHT22;38650;44.536;18.664;2024-01-06T12:15:28;16.90;54.30
52765;DHT22;38650;44.536;18.664;2024-01-06T12:17:54;17.00;54.60
52765;DHT22;38650;44.536;18.664;2024-01-06T12:20:22;17.10;54.10
52765;DHT22;38650;44.536;18.664;2024-01-06T12:22:51;17.10;53.90
52765;DHT22;38650;44.536;18.664;2024-01-06T12:25:17;17.10;54.20
52765;DHT22;38650;44.536;18.664;2024-01-06T12:27:43;17.10;54.10
52765;DHT22;38650;44.536;18.664;2024-01-06T12:30:20;17.10;54.60
52765;DHT22;38650;44.536;18.664;2024-01-06T12:32:47;17.10;54.40
52765;DHT22;38650;44.536;18.664;2024-01-06T12:35:15;17.20;54.30
52765;DHT22;38650;44.536;18.664;2024-01-06T12:37:44;17.10;53.90
52765;DHT22;38650;44.536;18.664;2024-01-06T12:40:12;17.10;54.80
52765;DHT22;38650;44.536;18.664;2024-01-06T12:42:38;17.00;54.60
52765;DHT22;38650;44.536;18.664;2024-01-06T12:45:05;17.00;54.40
52765;DHT22;38650;44.536;18.664;2024-01-06T12:47:31;17.00;54.60
52765;DHT22;38650;44.536;18.664;2024-01-06T12:49:57;16.90;54.70
52765;DHT22;38650;44.536;18.664;2024-01-06T12:52:23;17.00;55.20
52765;DHT22;38650;44.536;18.664;2024-01-06T12:54:49;17.00;54.70
52765;DHT22;38650;44.536;18.664;2024-01-06T12:57:15;16.90;54.90
52765;DHT22;38650;44.536;18.664;2024-01-06T12:59:41;17.00;55.30
52765;DHT22;38650;44.536;18.664;2024-01-06T13:02:07;17.00;55.10
52765;DHT22;38650;44.536;18.664;2024-01-06T13:04:34;17.10;54.90
52765;DHT22;38650;44.536;18.664;2024-01-06T13:07:00;17.10;56.00
52765;DHT22;38650;44.536;18.664;2024-01-06T13:09:27;17.10;55.30
52765;DHT22;38650;44.536;18.664;2024-01-06T13:11:53;17.10;54.60
52765;DHT22;38650;44.536;18.664;2024-01-06T13:14:21;17.10;55.10
52765;DHT22;38650;44.536;18.664;2024-01-06T13:16:47;17.10;55.20
52765;DHT22;38650;44.536;18.664;2024-01-06T13:19:12;17.00;55.30
52765;DHT22;38650;44.536;18.664;2024-01-06T13:21:38;17.10;55.50
52765;DHT22;38650;44.536;18.664;2024-01-06T13:24:06;17.10;55.90
52765;DHT22;38650;44.536;18.664;2024-01-06T13:26:32;17.10;56.00
52765;DHT22;38650;44.536;18.664;2024-01-06T13:28:57;17.20;56.40
52765;DHT22;38650;44.536;18.664;2024-01-06T13:31:23;17.20;55.90
52765;DHT22;38650;44.536;18.664;2024-01-06T13:33:49;17.30;55.50
52765;DHT22;38650;44.536;18.664;2024-01-06T13:36:18;17.30;56.00
52765;DHT22;38650;44.536;18.664;2024-01-06T13:38:43;17.40;56.80
52765;DHT22;38650;44.536;18.664;2024-01-06T13:41:09;17.40;56.50
52765;DHT22;38650;44.536;18.664;2024-01-06T13:43:35;17.40;57.20
52765;DHT22;38650;44.536;18.664;2024-01-06T13:46:00;17.30;57.70
52765;DHT22;38650;44.536;18.664;2024-01-06T13:48:27;17.30;57.80
52765;DHT22;38650;44.536;18.664;2024-01-06T13:50:52;17.40;57.80
52765;DHT22;38650;44.536;18.664;2024-01-06T13:53:18;17.40;60.00
52765;DHT22;38650;44.536;18.664;2024-01-06T13:55:45;17.50;61.90
52765;DHT22;38650;44.536;18.664;2024-01-06T13:58:10;17.50;61.20
52765;DHT22;38650;44.536;18.664;2024-01-06T14:00:36;17.60;61.90
52765;DHT22;38650;44.536;18.664;2024-01-06T14:03:02;17.60;65.60
52765;DHT22;38650;44.536;18.664;2024-01-06T14:05:28;17.60;62.40
52765;DHT22;38650;44.536;18.664;2024-01-06T14:07:54;17.60;66.40
52765;DHT22;38650;44.536;18.664;2024-01-06T14:10:21;17.70;61.30
52765;DHT22;38650;44.536;18.664;2024-01-06T14:12:46;17.80;62.80
52765;DHT22;38650;44.536;18.664;2024-01-06T14:15:12;18.10;60.40
52765;DHT22;38650;44.536;18.664;2024-01-06T14:17:38;18.40;58.90
52765;DHT22;38650;44.536;18.664;2024-01-06T14:20:05;18.50;55.90
52765;DHT22;38650;44.536;18.664;2024-01-06T14:22:31;18.60;57.30
52765;DHT22;38650;44.536;18.664;2024-01-06T14:24:56;18.70;60.00
52765;DHT22;38650;44.536;18.664;2024-01-06T14:27:22;18.80;57.30
52765;DHT22;38650;44.536;18.664;2024-01-06T14:29:48;19.00;54.60
52765;DHT22;38650;44.536;18.664;2024-01-06T14:32:14;19.10;53.60
52765;DHT22;38650;44.536;18.664;2024-01-06T14:34:40;19.20;53.00
52765;DHT22;38650;44.536;18.664;2024-01-06T14:37:06;19.30;52.80
52765;DHT22;38650;44.536;18.664;2024-01-06T14:39:31;19.30;51.70
52765;DHT22;38650;44.536;18.664;2024-01-06T14:41:57;19.20;52.00
52765;DHT22;38650;44.536;18.664;2024-01-06T14:44:23;19.10;51.20
52765;DHT22;38650;44.536;18.664;2024-01-06T14:46:49;19.00;51.00
52765;DHT22;38650;44.536;18.664;2024-01-06T14:49:16;18.80;51.30
52765;DHT22;38650;44.536;18.664;2024-01-06T14:51:42;18.80;51.70
52765;DHT22;38650;44.536;18.664;2024-01-06T14:54:08;18.60;52.30
52765;DHT22;38650;44.536;18.664;2024-01-06T14:56:38;18.50;52.30
52765;DHT22;38650;44.536;18.664;2024-01-06T14:59:07;18.40;53.00
52765;DHT22;38650;44.536;18.664;2024-01-06T15:01:33;18.30;53.30
52765;DHT22;38650;44.536;18.664;2024-01-06T15:03:58;18.10;55.40
52765;DHT22;38650;44.536;18.664;2024-01-06T15:06:24;17.90;58.20
52765;DHT22;38650;44.536;18.664;2024-01-06T15:08:50;17.60;59.40
52765;DHT22;38650;44.536;18.664;2024-01-06T15:11:16;17.40;63.30
52765;DHT22;38650;44.536;18.664;2024-01-06T15:13:41;17.30;63.50
52765;DHT22;38650;44.536;18.664;2024-01-06T15:16:07;17.00;65.40
52765;DHT22;38650;44.536;18.664;2024-01-06T15:18:33;16.80;68.00
52765;DHT22;38650;44.536;18.664;2024-01-06T15:21:00;16.70;73.20